createdAt,value
2017-08-31T00:00:43.492Z,22.8
2017-08-31T00:01:46.046Z,23
2017-08-31T00:02:48.194Z,22.8
2017-08-31T00:03:50.348Z,22.6
2017-08-31T00:04:52.571Z,22.6
2017-08-31T00:05:54.694Z,22.6
2017-08-31T00:06:58.688Z,22.7
2017-08-31T00:08:00.770Z,22.5
2017-08-31T00:09:02.875Z,22.6
2017-08-31T00:10:05.042Z,22.6
2017-08-31T00:11:07.138Z,22.8
2017-08-31T00:12:09.545Z,22.8
2017-08-31T00:13:11.619Z,22.9
2017-08-31T00:14:13.812Z,22.6
2017-08-31T00:15:15.913Z,22.7
2017-08-31T00:16:17.994Z,22.6
2017-08-31T00:17:20.597Z,22.6
2017-08-31T00:18:22.700Z,22.6
2017-08-31T00:19:24.746Z,22.6
2017-08-31T00:20:26.960Z,22.5
2017-08-31T00:21:29.070Z,22.6
2017-08-31T00:22:33.477Z,22.4
2017-08-31T00:23:35.517Z,22.5
2017-08-31T00:24:37.773Z,22.4
2017-08-31T00:25:39.893Z,22.4
2017-08-31T00:26:41.962Z,22.5
2017-08-31T00:27:44.410Z,22.5
2017-08-31T00:28:46.785Z,22.6
2017-08-31T00:29:48.860Z,22.5
2017-08-31T00:30:51.098Z,22.5
2017-08-31T00:31:53.194Z,22.5
2017-08-31T00:32:55.619Z,22.5
2017-08-31T00:33:57.722Z,22.5
2017-08-31T00:34:59.913Z,22.5
2017-08-31T00:36:02.205Z,22.5
2017-08-31T00:37:04.294Z,22.5
2017-08-31T00:38:06.720Z,22.4
2017-08-31T00:39:08.799Z,22.4
2017-08-31T00:40:10.937Z,22.5
2017-08-31T00:41:13.116Z,22.5
2017-08-31T00:42:15.266Z,22.3
2017-08-31T00:43:17.557Z,22.4
2017-08-31T00:44:19.655Z,22.4
2017-08-31T00:45:21.740Z,22.5
2017-08-31T00:46:23.902Z,22.5
2017-08-31T00:47:26.051Z,22.4
2017-08-31T00:48:28.415Z,22.2
2017-08-31T00:49:30.517Z,22.2
2017-08-31T00:50:32.680Z,22.2
2017-08-31T00:51:34.769Z,22.1
2017-08-31T00:52:36.842Z,22.2
2017-08-31T00:53:39.330Z,22.2
2017-08-31T00:54:41.417Z,22.3
2017-08-31T00:55:43.511Z,22.3
2017-08-31T00:56:45.650Z,22.3
2017-08-31T00:57:47.768Z,22.2
2017-08-31T00:58:50.249Z,22.2
2017-08-31T00:59:52.344Z,22.1
2017-08-31T01:00:54.406Z,22.1
2017-08-31T01:01:56.487Z,22.1
2017-08-31T01:02:58.621Z,22.1
2017-08-31T01:04:01.084Z,22.1
2017-08-31T01:05:03.217Z,22.1
2017-08-31T01:06:05.315Z,22.1
2017-08-31T01:07:07.453Z,22.1
2017-08-31T01:08:09.552Z,22.1
2017-08-31T01:09:11.989Z,22.1
2017-08-31T01:10:14.719Z,22
2017-08-31T01:11:16.836Z,21.9
2017-08-31T01:12:18.918Z,22
2017-08-31T01:13:21.118Z,21.8
2017-08-31T01:14:23.626Z,21.9
2017-08-31T01:15:25.684Z,21.9
2017-08-31T01:16:27.748Z,21.8
2017-08-31T01:17:29.899Z,21.9
2017-08-31T01:18:32.012Z,21.9
2017-08-31T01:19:34.474Z,22
2017-08-31T01:20:36.699Z,21.8
2017-08-31T01:21:38.953Z,21.9
2017-08-31T01:22:41.028Z,21.9
2017-08-31T01:23:43.133Z,21.9
2017-08-31T01:24:45.626Z,21.8
2017-08-31T01:25:47.867Z,21.8
2017-08-31T01:26:50.080Z,21.9
2017-08-31T01:27:52.161Z,21.9
2017-08-31T01:28:54.185Z,21.9
2017-08-31T01:29:56.564Z,21.8
2017-08-31T01:30:58.688Z,21.8
2017-08-31T01:32:00.754Z,21.9
2017-08-31T01:33:03.114Z,21.9
2017-08-31T01:34:05.197Z,21.9
2017-08-31T01:35:07.591Z,21.9
2017-08-31T01:36:09.674Z,21.7
2017-08-31T01:37:11.779Z,21.7
2017-08-31T01:38:13.911Z,21.8
2017-08-31T01:39:15.998Z,21.8
2017-08-31T01:40:18.363Z,21.8
2017-08-31T01:41:20.446Z,21.8
2017-08-31T01:42:22.495Z,21.8
2017-08-31T01:43:24.618Z,21.8
2017-08-31T01:44:26.688Z,21.8
2017-08-31T01:45:29.066Z,21.8
2017-08-31T01:46:31.199Z,21.7
2017-08-31T01:47:33.258Z,21.8
2017-08-31T01:48:35.394Z,21.8
2017-08-31T01:49:37.448Z,21.8
2017-08-31T01:50:39.811Z,21.8
2017-08-31T01:51:41.919Z,21.8
2017-08-31T01:52:44.024Z,21.8
2017-08-31T01:53:46.139Z,21.7
2017-08-31T01:54:48.296Z,21.7
2017-08-31T01:55:50.913Z,21.7
2017-08-31T01:56:52.988Z,21.7
2017-08-31T01:57:55.074Z,21.8
2017-08-31T01:58:57.185Z,21.8
2017-08-31T01:59:59.278Z,21.7
2017-08-31T02:01:01.688Z,21.9
2017-08-31T02:02:03.805Z,21.9
2017-08-31T02:03:05.862Z,21.8
2017-08-31T02:04:07.936Z,21.9
2017-08-31T02:05:09.987Z,21.8
2017-08-31T02:06:12.342Z,21.8
2017-08-31T02:07:14.497Z,21.8
2017-08-31T02:08:16.577Z,21.9
2017-08-31T02:09:18.613Z,21.9
2017-08-31T02:10:20.786Z,21.8
2017-08-31T02:11:23.230Z,21.9
2017-08-31T02:12:25.266Z,21.8
2017-08-31T02:13:29.382Z,21.7
2017-08-31T02:14:31.527Z,21.8
2017-08-31T02:15:33.652Z,21.8
2017-08-31T02:16:36.104Z,21.7
2017-08-31T02:17:38.216Z,21.8
2017-08-31T02:18:40.283Z,21.7
2017-08-31T02:19:42.379Z,21.7
2017-08-31T02:20:44.450Z,21.6
2017-08-31T02:21:46.902Z,21.6
2017-08-31T02:22:49.072Z,21.7
2017-08-31T02:23:51.273Z,21.7
2017-08-31T02:24:53.344Z,21.7
2017-08-31T02:25:55.444Z,21.7
2017-08-31T02:26:57.973Z,21.7
2017-08-31T02:28:00.183Z,21.6
2017-08-31T02:29:02.257Z,21.6
2017-08-31T02:30:04.377Z,21.5
2017-08-31T02:31:06.473Z,21.5
2017-08-31T02:32:08.860Z,21.5
2017-08-31T02:33:11.021Z,21.4
2017-08-31T02:34:13.117Z,21.5
2017-08-31T02:35:15.210Z,21.5
2017-08-31T02:36:17.269Z,21.4
2017-08-31T02:37:19.672Z,21.4
2017-08-31T02:38:21.743Z,21.4
2017-08-31T02:39:23.868Z,21.4
2017-08-31T02:40:25.991Z,21.2
2017-08-31T02:41:28.077Z,21.1
2017-08-31T02:42:30.411Z,21.2
2017-08-31T02:43:32.470Z,21.3
2017-08-31T02:44:34.789Z,21.3
2017-08-31T02:45:36.918Z,21.3
2017-08-31T02:46:39.026Z,21.2
2017-08-31T02:47:41.485Z,21.2
2017-08-31T02:48:43.679Z,21.3
2017-08-31T02:49:45.781Z,21.2
2017-08-31T02:50:47.854Z,21.3
2017-08-31T02:51:49.972Z,21.3
2017-08-31T02:52:52.409Z,21.2
2017-08-31T02:53:54.813Z,21.2
2017-08-31T02:54:56.869Z,21
2017-08-31T02:55:59.018Z,21
2017-08-31T02:57:01.117Z,21
2017-08-31T02:58:03.538Z,21.1
2017-08-31T02:59:05.622Z,21.1
2017-08-31T03:00:07.665Z,21.1
2017-08-31T03:01:09.734Z,21.1
2017-08-31T03:02:12.093Z,21.1
2017-08-31T03:03:14.479Z,21.1
2017-08-31T03:04:16.538Z,21.1
2017-08-31T03:05:18.574Z,21.1
2017-08-31T03:06:20.716Z,21
2017-08-31T03:07:22.968Z,21.1
2017-08-31T03:08:25.374Z,21.2
2017-08-31T03:09:27.524Z,21.2
2017-08-31T03:10:29.709Z,21
2017-08-31T03:11:31.841Z,21.1
2017-08-31T03:12:33.913Z,21.1
2017-08-31T03:13:36.375Z,21.1
2017-08-31T03:14:38.579Z,21
2017-08-31T03:15:40.679Z,21.1
2017-08-31T03:16:42.749Z,21.1
2017-08-31T03:17:44.892Z,21.1
2017-08-31T03:18:47.295Z,21.1
2017-08-31T03:19:49.454Z,21.1
2017-08-31T03:20:51.550Z,21
2017-08-31T03:21:53.695Z,21.1
2017-08-31T03:22:55.737Z,21.1
2017-08-31T03:23:58.136Z,20.9
2017-08-31T03:25:02.378Z,21.1
2017-08-31T03:26:04.552Z,20.9
2017-08-31T03:27:06.635Z,21
2017-08-31T03:28:08.709Z,21
2017-08-31T03:29:11.232Z,21.1
2017-08-31T03:30:13.352Z,21
2017-08-31T03:31:15.484Z,21
2017-08-31T03:32:17.658Z,21.1
2017-08-31T03:33:21.749Z,21.1
2017-08-31T03:34:24.218Z,21
2017-08-31T03:35:26.325Z,21
2017-08-31T03:36:28.382Z,20.9
2017-08-31T03:37:30.420Z,20.9
2017-08-31T03:38:32.555Z,21
2017-08-31T03:39:35.007Z,21
2017-08-31T03:40:37.078Z,20.9
2017-08-31T03:41:39.170Z,21
2017-08-31T03:42:41.285Z,20.9
2017-08-31T03:43:43.373Z,20.9
2017-08-31T03:44:45.902Z,21
2017-08-31T03:45:48.043Z,21
2017-08-31T03:46:50.194Z,21
2017-08-31T03:47:52.250Z,21
2017-08-31T03:48:54.320Z,21
2017-08-31T03:49:56.824Z,21
2017-08-31T03:50:58.958Z,21
2017-08-31T03:52:01.090Z,21
2017-08-31T03:53:03.266Z,21
2017-08-31T03:54:08.491Z,20.9
2017-08-31T03:55:10.979Z,20.9
2017-08-31T03:56:13.121Z,20.9
2017-08-31T03:57:15.235Z,20.9
2017-08-31T03:58:17.382Z,20.8
2017-08-31T03:59:19.467Z,20.8
2017-08-31T04:00:21.927Z,20.9
2017-08-31T04:01:23.990Z,20.8
2017-08-31T04:02:26.105Z,20.9
2017-08-31T04:03:28.267Z,20.9
2017-08-31T04:04:30.340Z,20.9
2017-08-31T04:05:32.836Z,20.9
2017-08-31T04:06:34.908Z,20.9
2017-08-31T04:07:36.944Z,20.9
2017-08-31T04:08:38.992Z,20.9
2017-08-31T04:09:41.113Z,21
2017-08-31T04:10:43.482Z,20.8
2017-08-31T04:11:45.610Z,20.8
2017-08-31T04:12:47.687Z,20.9
2017-08-31T04:13:49.836Z,20.9
2017-08-31T04:14:51.977Z,20.9
2017-08-31T04:15:54.516Z,20.9
2017-08-31T04:16:56.643Z,20.9
2017-08-31T04:17:58.674Z,20.9
2017-08-31T04:19:00.750Z,20.9
2017-08-31T04:20:04.431Z,20.8
2017-08-31T04:21:06.953Z,20.7
2017-08-31T04:22:09.130Z,20.7
2017-08-31T04:23:11.432Z,20.8
2017-08-31T04:24:13.536Z,20.6
2017-08-31T04:25:15.667Z,20.7
2017-08-31T04:26:18.064Z,20.6
2017-08-31T04:27:20.127Z,20.7
2017-08-31T04:28:22.454Z,20.7
2017-08-31T04:29:25.087Z,20.8
2017-08-31T04:30:27.311Z,20.8
2017-08-31T04:31:29.688Z,20.7
2017-08-31T04:32:31.764Z,20.7
2017-08-31T04:33:33.903Z,20.8
2017-08-31T04:34:35.984Z,20.7
2017-08-31T04:35:38.154Z,20.7
2017-08-31T04:36:40.490Z,20.7
2017-08-31T04:37:42.590Z,20.7
2017-08-31T04:38:44.666Z,20.8
2017-08-31T04:39:46.725Z,20.7
2017-08-31T04:40:48.777Z,20.8
2017-08-31T04:41:51.428Z,20.6
2017-08-31T04:42:53.559Z,20.7
2017-08-31T04:43:55.745Z,20.7
2017-08-31T04:44:57.820Z,20.7
2017-08-31T04:45:59.899Z,20.7
2017-08-31T04:47:02.401Z,20.7
2017-08-31T04:48:04.498Z,20.6
2017-08-31T04:49:06.540Z,20.7
2017-08-31T04:50:08.599Z,20.7
2017-08-31T04:51:10.632Z,20.7
2017-08-31T04:52:13.038Z,20.5
2017-08-31T04:53:15.158Z,20.6
2017-08-31T04:54:17.257Z,20.7
2017-08-31T04:55:19.409Z,20.7
2017-08-31T04:56:21.471Z,20.7
2017-08-31T04:57:23.980Z,20.8
2017-08-31T04:58:26.064Z,20.7
2017-08-31T04:59:28.148Z,20.8
2017-08-31T05:00:30.283Z,20.8
2017-08-31T05:01:32.364Z,20.6
2017-08-31T05:02:34.849Z,20.6
2017-08-31T05:03:36.922Z,20.6
2017-08-31T05:04:39.009Z,20.7
2017-08-31T05:05:41.083Z,20.8
2017-08-31T05:06:43.166Z,20.7
2017-08-31T05:07:46.305Z,20.7
2017-08-31T05:08:48.413Z,20.7
2017-08-31T05:09:50.737Z,20.7
2017-08-31T05:10:52.823Z,20.7
2017-08-31T05:11:54.988Z,20.6
2017-08-31T05:12:57.439Z,20.7
2017-08-31T05:13:59.480Z,20.6
2017-08-31T05:15:01.620Z,20.7
2017-08-31T05:16:03.748Z,20.8
2017-08-31T05:17:05.847Z,20.8
2017-08-31T05:18:08.337Z,20.7
2017-08-31T05:19:10.487Z,20.7
2017-08-31T05:20:13.079Z,20.8
2017-08-31T05:21:15.205Z,20.8
2017-08-31T05:22:17.325Z,20.8
2017-08-31T05:23:19.689Z,20.9
2017-08-31T05:24:21.776Z,20.9
2017-08-31T05:25:23.845Z,20.8
2017-08-31T05:26:25.978Z,20.7
2017-08-31T05:27:28.078Z,20.8
2017-08-31T05:28:30.530Z,20.8
2017-08-31T05:29:32.624Z,20.9
2017-08-31T05:30:34.885Z,21
2017-08-31T05:31:37.152Z,21
2017-08-31T05:32:39.225Z,21
2017-08-31T05:33:41.677Z,20.8
2017-08-31T05:34:43.741Z,20.8
2017-08-31T05:35:45.806Z,20.7
2017-08-31T05:36:47.959Z,20.7
2017-08-31T05:37:50.040Z,20.8
2017-08-31T05:40:02.309Z,20.7
2017-08-31T05:41:04.428Z,20.8
2017-08-31T05:42:06.596Z,20.8
2017-08-31T05:43:08.707Z,20.8
2017-08-31T05:44:11.154Z,20.8
2017-08-31T05:45:13.253Z,20.8
2017-08-31T05:46:15.404Z,20.7
2017-08-31T05:47:17.521Z,20.8
2017-08-31T05:48:19.845Z,20.8
2017-08-31T05:49:22.390Z,20.7
2017-08-31T05:50:24.524Z,20.8
2017-08-31T05:51:26.579Z,20.9
2017-08-31T05:52:28.756Z,21
2017-08-31T05:53:30.850Z,20.9
2017-08-31T05:54:33.258Z,20.9
2017-08-31T05:55:37.365Z,20.9
2017-08-31T05:56:39.473Z,21
2017-08-31T05:57:41.518Z,21
2017-08-31T05:58:43.640Z,21.1
2017-08-31T05:59:46.159Z,21
2017-08-31T06:00:48.269Z,20.9
2017-08-31T06:01:50.490Z,21
2017-08-31T06:02:52.619Z,21.1
2017-08-31T06:03:54.759Z,21.2
2017-08-31T06:04:57.198Z,21.2
2017-08-31T06:05:59.286Z,21.2
2017-08-31T06:07:01.369Z,21.2
2017-08-31T06:08:03.485Z,21.1
2017-08-31T06:09:05.619Z,21.1
2017-08-31T06:10:08.052Z,21.1
2017-08-31T06:11:11.478Z,21.2
2017-08-31T06:12:13.583Z,21.2
2017-08-31T06:13:15.648Z,21.2
2017-08-31T06:14:17.837Z,21.1
2017-08-31T06:15:20.316Z,21.2
2017-08-31T06:16:22.422Z,21.2
2017-08-31T06:17:24.534Z,21.2
2017-08-31T06:18:26.679Z,21.2
2017-08-31T06:19:28.798Z,21.4
2017-08-31T06:20:31.229Z,21.2
2017-08-31T06:21:33.409Z,21.2
2017-08-31T06:22:37.566Z,21.2
2017-08-31T06:23:39.669Z,21.1
2017-08-31T06:24:41.812Z,21
2017-08-31T06:25:44.256Z,20.9
2017-08-31T06:26:46.350Z,20.9
2017-08-31T06:27:48.449Z,21
2017-08-31T06:28:50.643Z,21
2017-08-31T06:29:57.307Z,21
2017-08-31T06:30:59.744Z,21
2017-08-31T06:32:02.158Z,21
2017-08-31T06:33:04.329Z,21.1
2017-08-31T06:34:06.989Z,21.1
2017-08-31T06:35:09.155Z,21
2017-08-31T06:36:11.750Z,21
2017-08-31T06:37:13.945Z,21.1
2017-08-31T06:38:16.021Z,21.2
2017-08-31T06:39:18.147Z,21.1
2017-08-31T06:40:20.849Z,21
2017-08-31T06:41:23.481Z,21
2017-08-31T06:42:25.591Z,21
2017-08-31T06:43:27.728Z,21.1
2017-08-31T06:44:29.865Z,21.2
2017-08-31T06:45:32.126Z,21.3
2017-08-31T06:46:34.771Z,21.3
2017-08-31T06:47:36.880Z,21.2
2017-08-31T06:48:39.018Z,21.1
2017-08-31T06:49:41.176Z,21.1
2017-08-31T06:50:43.359Z,21.1
2017-08-31T06:51:45.843Z,21.1
2017-08-31T06:52:47.884Z,21.1
2017-08-31T06:53:49.982Z,21.2
2017-08-31T06:54:52.067Z,21.3
2017-08-31T06:55:54.131Z,21.3
2017-08-31T06:56:56.477Z,21.2
2017-08-31T06:57:58.636Z,21.3
2017-08-31T06:59:00.704Z,21.3
2017-08-31T07:00:02.815Z,21.4
2017-08-31T07:01:04.914Z,21.2
2017-08-31T07:02:07.387Z,21.2
2017-08-31T07:03:09.913Z,21.2
2017-08-31T07:04:12.016Z,21.3
2017-08-31T07:05:14.141Z,21.4
2017-08-31T07:06:16.274Z,21.3
2017-08-31T07:07:18.810Z,21.2
2017-08-31T07:08:20.947Z,21.3
2017-08-31T07:09:23.083Z,21.3
2017-08-31T07:10:25.154Z,21.3
2017-08-31T07:11:27.246Z,21.2
2017-08-31T07:12:29.638Z,21.3
2017-08-31T07:13:31.730Z,21.3
2017-08-31T07:14:36.008Z,21.4
2017-08-31T07:15:38.121Z,21.4
2017-08-31T07:16:40.233Z,21.6
2017-08-31T07:17:42.642Z,21.6
2017-08-31T07:18:44.836Z,21.5
2017-08-31T07:19:46.871Z,21.4
2017-08-31T07:20:49.034Z,21.5
2017-08-31T07:21:51.215Z,21.5
2017-08-31T07:22:53.764Z,21.4
2017-08-31T07:23:55.915Z,21.5
2017-08-31T07:24:57.991Z,21.5
2017-08-31T07:26:00.098Z,21.5
2017-08-31T07:27:02.247Z,21.5
2017-08-31T07:28:04.677Z,21.6
2017-08-31T07:29:06.781Z,21.7
2017-08-31T07:30:08.827Z,21.8
2017-08-31T07:31:10.951Z,21.8
2017-08-31T07:32:13.004Z,21.8
2017-08-31T07:33:15.442Z,21.8
2017-08-31T07:34:17.675Z,21.6
2017-08-31T07:35:19.824Z,21.5
2017-08-31T07:36:21.970Z,21.5
2017-08-31T07:37:24.209Z,21.5
2017-08-31T07:38:26.646Z,21.5
2017-08-31T07:39:28.776Z,21.6
2017-08-31T07:40:34.296Z,21.5
2017-08-31T07:41:36.503Z,21.6
2017-08-31T07:42:39.176Z,21.6
2017-08-31T07:43:43.250Z,21.6
2017-08-31T07:44:45.305Z,21.5
2017-08-31T07:45:47.493Z,21.5
2017-08-31T07:46:49.637Z,21.5
2017-08-31T07:47:51.713Z,21.4
2017-08-31T07:48:54.100Z,21.5
2017-08-31T07:49:56.133Z,21.5
2017-08-31T07:50:58.220Z,21.5
2017-08-31T07:52:00.309Z,21.5
2017-08-31T07:53:02.454Z,21.6
2017-08-31T07:54:04.914Z,21.6
2017-08-31T07:55:07.003Z,21.5
2017-08-31T07:56:09.158Z,21.5
2017-08-31T07:57:11.293Z,21.5
2017-08-31T07:58:15.207Z,21.3
2017-08-31T07:59:19.050Z,21.5
2017-08-31T08:00:21.223Z,21.5
2017-08-31T08:01:23.313Z,21.7
2017-08-31T08:02:25.413Z,21.8
2017-08-31T08:03:27.513Z,21.8
2017-08-31T08:04:29.893Z,21.7
2017-08-31T08:05:32.011Z,21.7
2017-08-31T08:06:34.128Z,21.8
2017-08-31T08:07:36.229Z,21.8
2017-08-31T08:08:38.964Z,21.8
2017-08-31T08:09:41.366Z,21.8
2017-08-31T08:10:43.417Z,21.9
2017-08-31T08:11:45.518Z,22
2017-08-31T08:12:47.633Z,21.9
2017-08-31T08:13:49.746Z,22.1
2017-08-31T08:14:53.836Z,22
2017-08-31T08:15:55.928Z,22
2017-08-31T08:16:58.017Z,21.9
2017-08-31T08:18:00.159Z,21.9
2017-08-31T08:19:02.235Z,22
2017-08-31T08:20:04.619Z,21.6
2017-08-31T08:21:06.712Z,21.5
2017-08-31T08:22:08.927Z,21.3
2017-08-31T08:23:11.071Z,21.2
2017-08-31T08:24:13.167Z,21.1
2017-08-31T08:25:15.588Z,21.1
2017-08-31T08:26:17.672Z,21.2
2017-08-31T08:27:19.772Z,21.1
2017-08-31T08:28:21.892Z,20.8
2017-08-31T08:29:23.990Z,20.6
2017-08-31T08:30:26.384Z,20.5
2017-08-31T08:31:28.472Z,20.6
2017-08-31T08:32:30.746Z,20.5
2017-08-31T08:33:32.850Z,20.5
2017-08-31T08:34:34.982Z,20.6
2017-08-31T08:35:37.369Z,20.4
2017-08-31T08:36:39.436Z,20.6
2017-08-31T08:37:41.561Z,20.6
2017-08-31T08:38:43.670Z,20.5
2017-08-31T08:39:45.730Z,20.6
2017-08-31T08:40:48.157Z,20.6
2017-08-31T08:41:50.280Z,20.2
2017-08-31T08:42:52.373Z,20.3
2017-08-31T08:43:54.529Z,20.3
2017-08-31T08:44:56.676Z,20.3
2017-08-31T08:45:59.083Z,20.1
2017-08-31T08:47:01.172Z,19.8
2017-08-31T08:48:03.248Z,19.9
2017-08-31T08:49:05.419Z,19.7
2017-08-31T08:50:07.507Z,19.7
2017-08-31T08:51:09.923Z,19.8
2017-08-31T08:52:11.971Z,19.8
2017-08-31T08:53:14.060Z,19.6
2017-08-31T08:54:16.199Z,19.5
2017-08-31T08:55:18.211Z,19.5
2017-08-31T08:56:20.877Z,19.3
2017-08-31T08:57:22.998Z,19.1
2017-08-31T08:58:25.117Z,19.2
2017-08-31T08:59:27.335Z,19.1
2017-08-31T09:00:29.361Z,19.1
2017-08-31T09:01:33.356Z,18.9
2017-08-31T09:02:35.476Z,19.2
2017-08-31T09:03:37.993Z,19
2017-08-31T09:04:40.082Z,19.2
2017-08-31T09:05:42.227Z,19
2017-08-31T09:06:44.327Z,18.9
2017-08-31T09:07:46.436Z,18.8
2017-08-31T09:08:48.677Z,18.8
2017-08-31T09:09:50.860Z,18.8
2017-08-31T09:10:52.959Z,18.8
2017-08-31T09:11:55.389Z,18.8
2017-08-31T09:12:57.480Z,19.2
2017-08-31T09:13:59.560Z,19.2
2017-08-31T09:15:03.655Z,19.4
2017-08-31T09:16:05.759Z,19.5
2017-08-31T09:17:08.181Z,19.3
2017-08-31T09:18:10.304Z,19.1
2017-08-31T09:19:12.439Z,19
2017-08-31T09:20:14.542Z,19.1
2017-08-31T09:21:16.774Z,19.1
2017-08-31T09:22:19.353Z,19.1
2017-08-31T09:23:21.471Z,19.2
2017-08-31T09:24:23.577Z,19.1
2017-08-31T09:25:25.849Z,18.9
2017-08-31T09:26:29.857Z,19
2017-08-31T09:27:32.314Z,19.1
2017-08-31T09:28:34.377Z,19.1
2017-08-31T09:29:36.516Z,18.8
2017-08-31T09:30:38.631Z,19
2017-08-31T09:31:40.781Z,19.2
2017-08-31T09:32:43.217Z,19.2
2017-08-31T09:33:45.327Z,19.2
2017-08-31T09:34:47.514Z,19.1
2017-08-31T09:35:49.560Z,19.4
2017-08-31T09:36:51.600Z,19.4
2017-08-31T09:37:55.339Z,19.3
2017-08-31T09:38:57.485Z,19.4
2017-08-31T09:39:59.623Z,19.4
2017-08-31T09:41:01.699Z,19.3
2017-08-31T09:42:06.130Z,19.2
2017-08-31T09:43:08.573Z,19.3
2017-08-31T09:44:10.663Z,19.2
2017-08-31T09:45:12.768Z,19.1
2017-08-31T09:46:14.888Z,18.9
2017-08-31T09:47:17.234Z,18.8
2017-08-31T09:48:19.579Z,18.8
2017-08-31T09:49:23.185Z,18.8
2017-08-31T09:50:25.384Z,18.9
2017-08-31T09:51:27.453Z,18.8
2017-08-31T09:52:29.625Z,19
2017-08-31T09:53:32.036Z,18.9
2017-08-31T09:54:34.190Z,18.8
2017-08-31T09:55:36.350Z,18.9
2017-08-31T09:56:38.450Z,19
2017-08-31T09:57:40.600Z,19
2017-08-31T09:58:42.981Z,18.8
2017-08-31T09:59:45.135Z,18.7
2017-08-31T10:00:47.291Z,18.7
2017-08-31T10:01:49.355Z,18.5
2017-08-31T10:02:51.465Z,18.6
2017-08-31T10:03:54.277Z,18.6
2017-08-31T10:04:56.381Z,18.6
2017-08-31T10:05:58.496Z,18.6
2017-08-31T10:07:00.641Z,18.5
2017-08-31T10:08:04.996Z,18.4
2017-08-31T10:09:07.338Z,18.6
2017-08-31T10:10:09.406Z,18.4
2017-08-31T10:11:11.533Z,18.5
2017-08-31T10:12:13.700Z,18.4
2017-08-31T10:13:15.801Z,18.4
2017-08-31T10:14:18.295Z,18.1
2017-08-31T10:15:20.442Z,18.3
2017-08-31T10:16:22.632Z,18.4
2017-08-31T10:17:24.751Z,18.4
2017-08-31T10:18:26.932Z,18.4
2017-08-31T10:19:29.333Z,18.6
2017-08-31T10:20:31.597Z,18.5
2017-08-31T10:21:33.725Z,18.4
2017-08-31T10:22:35.817Z,18.5
2017-08-31T10:23:37.903Z,18.5
2017-08-31T10:24:40.300Z,18.4
2017-08-31T10:25:42.354Z,17.9
2017-08-31T10:26:44.511Z,18.2
2017-08-31T10:27:46.676Z,18.4
2017-08-31T10:28:48.790Z,18.5
2017-08-31T10:29:51.386Z,18.5
2017-08-31T10:30:53.640Z,18.4
2017-08-31T10:31:55.748Z,18.3
2017-08-31T10:32:57.879Z,18.4
2017-08-31T10:33:59.990Z,18.4
2017-08-31T10:35:02.418Z,18.4
2017-08-31T10:36:04.529Z,18.4
2017-08-31T10:37:06.641Z,18.4
2017-08-31T10:38:08.725Z,18.5
2017-08-31T10:39:10.780Z,18.2
2017-08-31T10:40:13.142Z,18.2
2017-08-31T10:41:15.226Z,18.4
2017-08-31T10:42:17.337Z,18.4
2017-08-31T10:43:19.478Z,18.4
2017-08-31T10:44:21.563Z,18.4
2017-08-31T10:45:24.094Z,18.4
2017-08-31T10:46:26.137Z,18.3
2017-08-31T10:47:29.370Z,18.2
2017-08-31T10:48:31.475Z,18.2
2017-08-31T10:49:33.613Z,18.3
2017-08-31T10:50:36.062Z,18.2
2017-08-31T10:51:38.131Z,18.1
2017-08-31T10:52:40.287Z,18.3
2017-08-31T10:53:42.419Z,18.3
2017-08-31T10:54:44.576Z,18.4
2017-08-31T10:55:48.889Z,18.3
2017-08-31T10:56:51.062Z,18.3
2017-08-31T10:57:53.206Z,18.2
2017-08-31T10:58:55.259Z,18.2
2017-08-31T10:59:57.427Z,18.2
2017-08-31T11:00:59.832Z,18.1
2017-08-31T11:02:01.929Z,18.2
2017-08-31T11:03:04.138Z,18.3
2017-08-31T11:04:06.243Z,18.5
2017-08-31T11:05:08.393Z,18.4
2017-08-31T11:06:10.829Z,18.4
2017-08-31T11:07:12.923Z,18.4
2017-08-31T11:08:15.022Z,18.3
2017-08-31T11:09:17.201Z,18.4
2017-08-31T11:10:19.298Z,18.4
2017-08-31T11:11:21.730Z,18.5
2017-08-31T11:12:23.841Z,18.4
2017-08-31T11:13:25.914Z,18.4
2017-08-31T11:14:29.212Z,18.2
2017-08-31T11:15:31.335Z,18.2
2017-08-31T11:16:33.762Z,18.5
2017-08-31T11:17:35.957Z,18.5
2017-08-31T11:18:38.047Z,18.6
2017-08-31T11:19:40.197Z,18.7
2017-08-31T11:20:42.479Z,18.8
2017-08-31T11:21:46.655Z,18.6
2017-08-31T11:22:48.842Z,18.5
2017-08-31T11:23:51.128Z,18.6
2017-08-31T11:24:53.668Z,18.5
2017-08-31T11:25:55.905Z,18.4
2017-08-31T11:26:58.358Z,18.5
2017-08-31T11:28:02.618Z,18.4
2017-08-31T11:29:05.407Z,18.4
2017-08-31T11:30:07.972Z,18.4
2017-08-31T11:31:10.576Z,18.3
2017-08-31T11:32:13.516Z,18.5
2017-08-31T11:33:16.127Z,18.4
2017-08-31T11:34:18.653Z,18.6
2017-08-31T11:35:21.269Z,18.5
2017-08-31T11:36:24.020Z,18.6
2017-08-31T11:37:27.031Z,18.6
2017-08-31T11:38:29.530Z,18.7
2017-08-31T11:39:31.654Z,18.6
2017-08-31T11:40:33.892Z,18.6
2017-08-31T11:41:36.066Z,18.5
2017-08-31T11:42:39.337Z,18.4
2017-08-31T11:43:41.481Z,18.5
2017-08-31T11:44:43.691Z,18.6
2017-08-31T11:45:45.742Z,18.6
2017-08-31T11:46:47.821Z,18.5
2017-08-31T11:47:50.260Z,18.5
2017-08-31T11:48:52.420Z,18.3
2017-08-31T11:49:54.740Z,18.5
2017-08-31T11:50:56.895Z,18.7
2017-08-31T11:51:59.096Z,18.8
2017-08-31T11:53:01.570Z,18.8
2017-08-31T11:54:03.723Z,19
2017-08-31T11:55:05.923Z,19.1
2017-08-31T11:56:08.160Z,19.1
2017-08-31T11:57:11.179Z,19
2017-08-31T11:58:13.632Z,18.9
2017-08-31T11:59:15.758Z,18.7
2017-08-31T12:00:17.976Z,18.7
2017-08-31T12:01:20.076Z,18.6
2017-08-31T12:02:22.205Z,18.7
2017-08-31T12:03:24.695Z,18.6
2017-08-31T12:04:26.815Z,18.5
2017-08-31T12:05:30.822Z,18.4
2017-08-31T12:06:33.110Z,18.3
2017-08-31T12:07:35.145Z,18.4
2017-08-31T12:08:37.690Z,18.4
2017-08-31T12:09:39.871Z,18.3
2017-08-31T12:10:41.938Z,18.4
2017-08-31T12:11:44.812Z,18.4
2017-08-31T12:12:49.240Z,18.5
2017-08-31T12:13:51.658Z,18.5
2017-08-31T12:14:53.755Z,18.5
2017-08-31T12:15:55.931Z,18.6
2017-08-31T12:16:58.142Z,18.8
2017-08-31T12:18:00.281Z,18.8
2017-08-31T12:19:03.019Z,18.8
2017-08-31T12:20:05.115Z,18.9
2017-08-31T12:21:07.249Z,18.9
2017-08-31T12:22:09.373Z,19
2017-08-31T12:23:11.489Z,18.9
2017-08-31T12:24:13.856Z,18.8
2017-08-31T12:25:15.954Z,18.6
2017-08-31T12:26:18.143Z,18.6
2017-08-31T12:27:20.351Z,18.6
2017-08-31T12:28:22.484Z,18.6
2017-08-31T12:29:24.952Z,18.6
2017-08-31T12:30:27.135Z,18.7
2017-08-31T12:31:29.496Z,18.8
2017-08-31T12:32:31.569Z,19
2017-08-31T12:33:33.705Z,19.3
2017-08-31T12:34:36.661Z,19.4
2017-08-31T12:35:38.737Z,19.5
2017-08-31T12:36:40.856Z,19.4
2017-08-31T12:37:42.995Z,19.4
2017-08-31T12:38:45.226Z,19.6
2017-08-31T12:39:47.576Z,19.7
2017-08-31T12:40:49.758Z,19.7
2017-08-31T12:41:51.891Z,19.7
2017-08-31T12:42:54.038Z,19.6
2017-08-31T12:43:56.133Z,19.7
2017-08-31T12:44:58.515Z,19.8
2017-08-31T12:46:00.644Z,19.7
2017-08-31T12:47:02.868Z,19.6
2017-08-31T12:48:05.045Z,19.6
2017-08-31T12:49:08.266Z,19.6
2017-08-31T12:50:10.689Z,19.5
2017-08-31T12:51:12.834Z,19.6
2017-08-31T12:52:14.988Z,19.4
2017-08-31T12:53:17.156Z,19.6
2017-08-31T12:54:19.356Z,19.7
2017-08-31T12:55:21.849Z,19.6
2017-08-31T12:56:23.963Z,19.4
2017-08-31T12:57:27.199Z,19.5
2017-08-31T12:58:29.331Z,19.7
2017-08-31T12:59:31.491Z,19.6
2017-08-31T13:00:34.033Z,19.5
2017-08-31T13:01:36.165Z,19.5
2017-08-31T13:02:38.240Z,19.6
2017-08-31T13:03:40.409Z,19.6
2017-08-31T13:04:43.021Z,19.5
2017-08-31T13:05:45.483Z,19.7
2017-08-31T13:06:47.572Z,19.6
2017-08-31T13:07:49.792Z,19.8
2017-08-31T13:08:51.952Z,19.6
2017-08-31T13:09:54.051Z,19.3
2017-08-31T13:10:56.501Z,19.6
2017-08-31T13:11:58.680Z,19.6
2017-08-31T13:13:00.789Z,19.7
2017-08-31T13:14:02.983Z,19.6
2017-08-31T13:15:05.113Z,19.6
2017-08-31T13:16:07.547Z,19.5
2017-08-31T13:17:09.772Z,19.6
2017-08-31T13:18:11.909Z,19.7
2017-08-31T13:19:14.044Z,19.6
2017-08-31T13:20:16.142Z,19.5
2017-08-31T13:21:18.188Z,19.2
2017-08-31T13:22:20.244Z,19.5
2017-08-31T13:23:22.430Z,19.4
2017-08-31T13:24:24.539Z,19.4
2017-08-31T13:25:26.642Z,19.4
2017-08-31T13:26:28.748Z,19.3
2017-08-31T13:27:30.879Z,19.2
2017-08-31T13:28:33.074Z,18.9
2017-08-31T13:29:35.187Z,19.2
2017-08-31T13:30:38.669Z,19.3
2017-08-31T13:31:41.120Z,19.4
2017-08-31T13:32:43.287Z,19.4
2017-08-31T13:33:45.412Z,19.5
2017-08-31T13:34:47.526Z,19.3
2017-08-31T13:35:49.610Z,19.4
2017-08-31T13:36:52.108Z,19.6
2017-08-31T13:37:54.348Z,19.4
2017-08-31T13:38:56.557Z,19.8
2017-08-31T13:39:58.777Z,19.5
2017-08-31T13:41:01.023Z,19.8
2017-08-31T13:42:04.586Z,19.8
2017-08-31T13:43:06.731Z,19.7
2017-08-31T13:44:08.896Z,19.6
2017-08-31T13:45:11.089Z,19.6
2017-08-31T13:46:13.269Z,19.7
2017-08-31T13:47:15.651Z,19.6
2017-08-31T13:48:17.785Z,19.8
2017-08-31T13:49:19.976Z,20
2017-08-31T13:50:22.307Z,20
2017-08-31T13:51:24.518Z,20
2017-08-31T13:52:27.094Z,20
2017-08-31T13:53:29.282Z,20
2017-08-31T13:54:31.480Z,19.9
2017-08-31T13:55:33.609Z,19.9